sensor_id;sensor_type;location;lat;lon;timestamp;temperature;humidity
25138;DHT22;13112;50.986;4.354;2022-08-02T00:00:25;20.10;99.90
25138;DHT22;13112;50.986;4.354;2022-08-02T00:02:50;20.10;99.90
25138;DHT22;13112;50.986;4.354;2022-08-02T00:05:16;20.10;99.90
25138;DHT22;13112;50.986;4.354;2022-08-02T00:07:42;20.10;99.90
25138;DHT22;13112;50.986;4.354;2022-08-02T00:10:09;20.00;99.90
25138;DHT22;13112;50.986;4.354;2022-08-02T00:12:35;20.00;99.90
25138;DHT22;13112;50.986;4.354;2022-08-02T00:15:01;20.00;99.90
25138;DHT22;13112;50.986;4.354;2022-08-02T00:17:26;20.00;99.90
25138;DHT22;13112;50.986;4.354;2022-08-02T00:19:52;19.90;99.90
25138;DHT22;13112;50.986;4.354;2022-08-02T00:22:18;19.80;99.90
25138;DHT22;13112;50.986;4.354;2022-08-02T00:24:43;19.80;99.90
25138;DHT22;13112;50.986;4.354;2022-08-02T00:27:09;19.80;99.90
25138;DHT22;13112;50.986;4.354;2022-08-02T00:29:36;19.80;99.90
25138;DHT22;13112;50.986;4.354;2022-08-02T00:32:02;19.80;99.90
25138;DHT22;13112;50.986;4.354;2022-08-02T00:34:28;19.60;99.90
25138;DHT22;13112;50.986;4.354;2022-08-02T00:36:53;19.80;99.90
25138;DHT22;13112;50.986;4.354;2022-08-02T00:39:19;19.80;99.90
25138;DHT22;13112;50.986;4.354;2022-08-02T00:41:47;19.70;99.90
25138;DHT22;13112;50.986;4.354;2022-08-02T00:44:17;19.70;99.90
25138;DHT22;13112;50.986;4.354;2022-08-02T00:46:43;19.70;99.90
25138;DHT22;13112;50.986;4.354;2022-08-02T00:49:11;19.60;99.90
25138;DHT22;13112;50.986;4.354;2022-08-02T00:51:37;19.60;99.90
25138;DHT22;13112;50.986;4.354;2022-08-02T00:54:03;19.70;99.90
25138;DHT22;13112;50.986;4.354;2022-08-02T00:56:29;19.70;99.90
25138;DHT22;13112;50.986;4.354;2022-08-02T00:58:55;19.70;99.90
25138;DHT22;13112;50.986;4.354;2022-08-02T01:01:20;19.90;99.90
25138;DHT22;13112;50.986;4.354;2022-08-02T01:04:12;19.80;99.90
25138;DHT22;13112;50.986;4.354;2022-08-02T01:06:41;19.70;99.90
25138;DHT22;13112;50.986;4.354;2022-08-02T01:09:07;19.60;99.90
25138;DHT22;13112;50.986;4.354;2022-08-02T01:11:34;19.50;99.90
25138;DHT22;13112;50.986;4.354;2022-08-02T01:14:09;19.60;99.90
25138;DHT22;13112;50.986;4.354;2022-08-02T01:16:44;19.60;99.90
25138;DHT22;13112;50.986;4.354;2022-08-02T01:19:36;19.50;99.90
25138;DHT22;13112;50.986;4.354;2022-08-02T01:30:35;19.50;99.90
25138;DHT22;13112;50.986;4.354;2022-08-02T01:33:04;19.60;99.90
25138;DHT22;13112;50.986;4.354;2022-08-02T01:35:38;19.70;99.90
25138;DHT22;13112;50.986;4.354;2022-08-02T01:38:10;19.50;99.90
25138;DHT22;13112;50.986;4.354;2022-08-02T01:40:41;19.30;99.90
25138;DHT22;13112;50.986;4.354;2022-08-02T01:43:09;19.40;99.90
25138;DHT22;13112;50.986;4.354;2022-08-02T01:45:38;19.60;99.90
25138;DHT22;13112;50.986;4.354;2022-08-02T01:48:06;19.70;99.90
25138;DHT22;13112;50.986;4.354;2022-08-02T01:50:34;19.60;99.90
25138;DHT22;13112;50.986;4.354;2022-08-02T01:53:05;19.40;99.90
25138;DHT22;13112;50.986;4.354;2022-08-02T01:55:46;19.00;99.90
25138;DHT22;13112;50.986;4.354;2022-08-02T01:58:16;18.90;99.90
25138;DHT22;13112;50.986;4.354;2022-08-02T02:00:43;19.20;99.90
25138;DHT22;13112;50.986;4.354;2022-08-02T02:03:21;19.30;99.90
25138;DHT22;13112;50.986;4.354;2022-08-02T02:05:49;19.50;99.90
25138;DHT22;13112;50.986;4.354;2022-08-02T02:08:20;19.60;99.90
25138;DHT22;13112;50.986;4.354;2022-08-02T02:10:49;19.60;99.90
25138;DHT22;13112;50.986;4.354;2022-08-02T02:13:17;19.70;99.90
25138;DHT22;13112;50.986;4.354;2022-08-02T02:15:47;19.70;99.90
25138;DHT22;13112;50.986;4.354;2022-08-02T02:18:19;19.70;99.90
25138;DHT22;13112;50.986;4.354;2022-08-02T02:20:46;19.60;99.90
25138;DHT22;13112;50.986;4.354;2022-08-02T02:23:12;19.60;99.90
25138;DHT22;13112;50.986;4.354;2022-08-02T02:25:40;19.50;99.90
25138;DHT22;13112;50.986;4.354;2022-08-02T02:28:10;19.50;99.90
25138;DHT22;13112;50.986;4.354;2022-08-02T02:30:38;19.50;99.90
25138;DHT22;13112;50.986;4.354;2022-08-02T02:33:06;19.40;99.90
25138;DHT22;13112;50.986;4.354;2022-08-02T02:35:34;19.30;99.90
25138;DHT22;13112;50.986;4.354;2022-08-02T02:38:05;19.30;99.90
25138;DHT22;13112;50.986;4.354;2022-08-02T02:40:32;19.20;99.90
25138;DHT22;13112;50.986;4.354;2022-08-02T02:43:00;19.20;99.90
25138;DHT22;13112;50.986;4.354;2022-08-02T02:45:27;19.10;99.90
25138;DHT22;13112;50.986;4.354;2022-08-02T02:47:55;19.00;99.90
25138;DHT22;13112;50.986;4.354;2022-08-02T02:50:21;18.90;99.90
25138;DHT22;13112;50.986;4.354;2022-08-02T02:52:49;18.80;99.90
25138;DHT22;13112;50.986;4.354;2022-08-02T02:55:16;18.80;99.90
25138;DHT22;13112;50.986;4.354;2022-08-02T02:57:43;18.80;99.90
25138;DHT22;13112;50.986;4.354;2022-08-02T03:00:12;18.80;99.90
25138;DHT22;13112;50.986;4.354;2022-08-02T03:02:39;18.70;99.90
25138;DHT22;13112;50.986;4.354;2022-08-02T03:05:06;18.60;99.90
25138;DHT22;13112;50.986;4.354;2022-08-02T03:07:33;18.60;99.90
25138;DHT22;13112;50.986;4.354;2022-08-02T03:09:59;18.50;99.90
25138;DHT22;13112;50.986;4.354;2022-08-02T03:12:25;18.50;99.90
25138;DHT22;13112;50.986;4.354;2022-08-02T03:14:52;18.40;99.90
25138;DHT22;13112;50.986;4.354;2022-08-02T03:17:18;18.60;99.90
25138;DHT22;13112;50.986;4.354;2022-08-02T03:19:44;18.60;99.90
25138;DHT22;13112;50.986;4.354;2022-08-02T03:22:10;18.70;99.90
25138;DHT22;13112;50.986;4.354;2022-08-02T03:24:36;18.70;99.90
25138;DHT22;13112;50.986;4.354;2022-08-02T03:27:02;18.70;99.90
25138;DHT22;13112;50.986;4.354;2022-08-02T03:29:28;18.70;99.90
25138;DHT22;13112;50.986;4.354;2022-08-02T03:31:54;18.70;99.90
25138;DHT22;13112;50.986;4.354;2022-08-02T03:34:20;18.70;99.90
25138;DHT22;13112;50.986;4.354;2022-08-02T03:36:49;18.60;99.90
25138;DHT22;13112;50.986;4.354;2022-08-02T03:39:17;18.50;99.90
25138;DHT22;13112;50.986;4.354;2022-08-02T03:41:44;18.50;99.90
25138;DHT22;13112;50.986;4.354;2022-08-02T03:44:10;18.60;99.90
25138;DHT22;13112;50.986;4.354;2022-08-02T03:46:36;18.70;99.90
25138;DHT22;13112;50.986;4.354;2022-08-02T03:49:05;18.70;99.90
25138;DHT22;13112;50.986;4.354;2022-08-02T03:51:33;18.80;99.90
25138;DHT22;13112;50.986;4.354;2022-08-02T03:54:00;18.80;99.90
25138;DHT22;13112;50.986;4.354;2022-08-02T03:56:27;19.00;99.90
25138;DHT22;13112;50.986;4.354;2022-08-02T03:59:05;19.10;99.90
25138;DHT22;13112;50.986;4.354;2022-08-02T04:01:31;19.10;99.90
25138;DHT22;13112;50.986;4.354;2022-08-02T04:03:56;19.10;99.90
25138;DHT22;13112;50.986;4.354;2022-08-02T04:06:22;19.20;99.90
25138;DHT22;13112;50.986;4.354;2022-08-02T04:08:47;19.20;99.90
25138;DHT22;13112;50.986;4.354;2022-08-02T04:11:13;19.20;99.90
25138;DHT22;13112;50.986;4.354;2022-08-02T04:14:07;19.20;99.90
25138;DHT22;13112;50.986;4.354;2022-08-02T04:19:04;19.30;99.90
25138;DHT22;13112;50.986;4.354;2022-08-02T04:21:34;19.20;99.90
25138;DHT22;13112;50.986;4.354;2022-08-02T04:24:02;19.10;99.90
25138;DHT22;13112;50.986;4.354;2022-08-02T04:26:30;19.10;99.90
25138;DHT22;13112;50.986;4.354;2022-08-02T04:28:57;19.00;99.90
25138;DHT22;13112;50.986;4.354;2022-08-02T04:31:23;18.70;99.90
25138;DHT22;13112;50.986;4.354;2022-08-02T04:33:50;18.70;99.90
25138;DHT22;13112;50.986;4.354;2022-08-02T04:36:15;18.80;99.90
25138;DHT22;13112;50.986;4.354;2022-08-02T04:38:41;18.80;99.90
25138;DHT22;13112;50.986;4.354;2022-08-02T04:41:07;18.70;99.90
25138;DHT22;13112;50.986;4.354;2022-08-02T04:43:33;18.70;99.90
25138;DHT22;13112;50.986;4.354;2022-08-02T04:45:59;18.80;99.90
25138;DHT22;13112;50.986;4.354;2022-08-02T04:48:27;18.70;99.90
25138;DHT22;13112;50.986;4.354;2022-08-02T04:50:53;18.70;99.90
25138;DHT22;13112;50.986;4.354;2022-08-02T04:53:19;18.70;99.90
25138;DHT22;13112;50.986;4.354;2022-08-02T04:55:45;18.70;99.90
25138;DHT22;13112;50.986;4.354;2022-08-02T04:58:12;18.90;99.90
25138;DHT22;13112;50.986;4.354;2022-08-02T05:00:38;19.00;99.90
25138;DHT22;13112;50.986;4.354;2022-08-02T05:03:04;19.00;99.90
25138;DHT22;13112;50.986;4.354;2022-08-02T05:05:29;19.10;99.90
25138;DHT22;13112;50.986;4.354;2022-08-02T05:07:55;19.10;99.90
25138;DHT22;13112;50.986;4.354;2022-08-02T05:10:21;19.30;99.90
25138;DHT22;13112;50.986;4.354;2022-08-02T05:12:47;19.20;99.90
25138;DHT22;13112;50.986;4.354;2022-08-02T05:15:14;19.40;99.90
25138;DHT22;13112;50.986;4.354;2022-08-02T05:17:46;19.40;99.90
25138;DHT22;13112;50.986;4.354;2022-08-02T05:20:12;19.50;99.90
25138;DHT22;13112;50.986;4.354;2022-08-02T05:22:39;19.70;99.90
25138;DHT22;13112;50.986;4.354;2022-08-02T05:25:05;19.60;99.90
25138;DHT22;13112;50.986;4.354;2022-08-02T05:27:31;19.40;99.90
25138;DHT22;13112;50.986;4.354;2022-08-02T05:29:58;19.30;99.90
25138;DHT22;13112;50.986;4.354;2022-08-02T05:32:24;19.50;99.90
25138;DHT22;13112;50.986;4.354;2022-08-02T05:34:49;19.50;99.90
25138;DHT22;13112;50.986;4.354;2022-08-02T05:37:16;19.20;99.90
25138;DHT22;13112;50.986;4.354;2022-08-02T05:39:41;19.10;99.90
25138;DHT22;13112;50.986;4.354;2022-08-02T05:42:07;19.30;99.90
25138;DHT22;13112;50.986;4.354;2022-08-02T05:44:33;19.20;99.90
25138;DHT22;13112;50.986;4.354;2022-08-02T05:46:58;19.20;99.90
25138;DHT22;13112;50.986;4.354;2022-08-02T05:49:24;19.40;99.90
25138;DHT22;13112;50.986;4.354;2022-08-02T05:52:03;19.40;99.90
25138;DHT22;13112;50.986;4.354;2022-08-02T05:57:04;19.70;99.90
25138;DHT22;13112;50.986;4.354;2022-08-02T06:02:03;19.90;99.90
25138;DHT22;13112;50.986;4.354;2022-08-02T06:05:03;20.00;99.90
25138;DHT22;13112;50.986;4.354;2022-08-02T06:07:26;19.90;99.90
25138;DHT22;13112;50.986;4.354;2022-08-02T06:09:53;19.90;99.90
25138;DHT22;13112;50.986;4.354;2022-08-02T06:12:19;20.00;99.90
25138;DHT22;13112;50.986;4.354;2022-08-02T06:14:46;20.00;99.90
25138;DHT22;13112;50.986;4.354;2022-08-02T06:17:13;20.00;99.90
25138;DHT22;13112;50.986;4.354;2022-08-02T06:19:40;20.10;99.90
25138;DHT22;13112;50.986;4.354;2022-08-02T06:22:06;20.30;99.90
25138;DHT22;13112;50.986;4.354;2022-08-02T06:24:45;20.40;99.90
25138;DHT22;13112;50.986;4.354;2022-08-02T06:27:13;20.30;99.90
25138;DHT22;13112;50.986;4.354;2022-08-02T06:29:42;20.50;99.90
25138;DHT22;13112;50.986;4.354;2022-08-02T06:32:08;20.70;99.90
25138;DHT22;13112;50.986;4.354;2022-08-02T06:34:38;20.70;99.90
25138;DHT22;13112;50.986;4.354;2022-08-02T06:37:17;21.00;99.90
25138;DHT22;13112;50.986;4.354;2022-08-02T06:39:47;21.30;99.90
25138;DHT22;13112;50.986;4.354;2022-08-02T06:42:19;21.40;99.90
25138;DHT22;13112;50.986;4.354;2022-08-02T06:44:46;21.60;99.90
25138;DHT22;13112;50.986;4.354;2022-08-02T06:47:11;21.80;99.90
25138;DHT22;13112;50.986;4.354;2022-08-02T06:49:37;22.10;99.90
25138;DHT22;13112;50.986;4.354;2022-08-02T06:52:03;22.60;99.90
25138;DHT22;13112;50.986;4.354;2022-08-02T06:54:29;23.50;99.90
25138;DHT22;13112;50.986;4.354;2022-08-02T06:56:55;24.50;99.90
25138;DHT22;13112;50.986;4.354;2022-08-02T06:59:20;25.20;99.90
25138;DHT22;13112;50.986;4.354;2022-08-02T07:01:46;25.60;99.90
25138;DHT22;13112;50.986;4.354;2022-08-02T07:04:11;25.80;99.90
25138;DHT22;13112;50.986;4.354;2022-08-02T07:06:37;25.50;99.90
25138;DHT22;13112;50.986;4.354;2022-08-02T07:09:03;26.00;99.90
25138;DHT22;13112;50.986;4.354;2022-08-02T07:11:29;26.40;99.90
25138;DHT22;13112;50.986;4.354;2022-08-02T07:13:54;26.30;99.90
25138;DHT22;13112;50.986;4.354;2022-08-02T07:16:20;26.10;99.90
25138;DHT22;13112;50.986;4.354;2022-08-02T07:18:46;24.90;99.90
25138;DHT22;13112;50.986;4.354;2022-08-02T07:21:11;24.50;99.90
25138;DHT22;13112;50.986;4.354;2022-08-02T07:23:37;23.80;99.90
25138;DHT22;13112;50.986;4.354;2022-08-02T07:26:02;24.20;99.90
25138;DHT22;13112;50.986;4.354;2022-08-02T07:28:28;24.50;99.90
25138;DHT22;13112;50.986;4.354;2022-08-02T07:30:54;25.80;99.90
25138;DHT22;13112;50.986;4.354;2022-08-02T07:33:19;25.60;99.90
25138;DHT22;13112;50.986;4.354;2022-08-02T07:35:45;24.40;99.90
25138;DHT22;13112;50.986;4.354;2022-08-02T07:38:11;25.50;99.90
25138;DHT22;13112;50.986;4.354;2022-08-02T07:40:37;25.00;99.90
25138;DHT22;13112;50.986;4.354;2022-08-02T07:43:03;25.80;99.90
25138;DHT22;13112;50.986;4.354;2022-08-02T07:45:30;27.40;99.90
25138;DHT22;13112;50.986;4.354;2022-08-02T07:47:56;27.30;99.90
25138;DHT22;13112;50.986;4.354;2022-08-02T07:50:22;26.80;99.90
25138;DHT22;13112;50.986;4.354;2022-08-02T07:52:48;26.70;99.90
25138;DHT22;13112;50.986;4.354;2022-08-02T07:55:15;26.70;99.90
25138;DHT22;13112;50.986;4.354;2022-08-02T07:57:42;25.40;99.90
25138;DHT22;13112;50.986;4.354;2022-08-02T08:00:08;25.70;99.90
25138;DHT22;13112;50.986;4.354;2022-08-02T08:02:35;27.40;99.90
25138;DHT22;13112;50.986;4.354;2022-08-02T08:05:00;28.50;99.90
25138;DHT22;13112;50.986;4.354;2022-08-02T08:07:26;29.30;99.90
25138;DHT22;13112;50.986;4.354;2022-08-02T08:09:53;30.20;99.90
25138;DHT22;13112;50.986;4.354;2022-08-02T08:12:18;30.90;99.00
25138;DHT22;13112;50.986;4.354;2022-08-02T08:14:44;29.50;98.20
25138;DHT22;13112;50.986;4.354;2022-08-02T08:17:10;27.70;99.90
25138;DHT22;13112;50.986;4.354;2022-08-02T08:19:35;27.30;99.90
25138;DHT22;13112;50.986;4.354;2022-08-02T08:22:01;27.50;99.90
25138;DHT22;13112;50.986;4.354;2022-08-02T08:24:27;29.30;99.90
25138;DHT22;13112;50.986;4.354;2022-08-02T08:26:54;30.60;98.80
25138;DHT22;13112;50.986;4.354;2022-08-02T08:29:20;31.20;97.40
25138;DHT22;13112;50.986;4.354;2022-08-02T08:31:46;31.20;96.90
25138;DHT22;13112;50.986;4.354;2022-08-02T08:34:12;31.30;96.40
25138;DHT22;13112;50.986;4.354;2022-08-02T08:36:38;31.40;95.60
25138;DHT22;13112;50.986;4.354;2022-08-02T08:39:04;31.30;95.40
25138;DHT22;13112;50.986;4.354;2022-08-02T08:41:30;31.70;94.50
25138;DHT22;13112;50.986;4.354;2022-08-02T08:43:55;31.80;94.50
25138;DHT22;13112;50.986;4.354;2022-08-02T08:46:26;31.90;94.20
25138;DHT22;13112;50.986;4.354;2022-08-02T08:48:58;31.50;92.80
25138;DHT22;13112;50.986;4.354;2022-08-02T08:51:25;31.00;93.50
25138;DHT22;13112;50.986;4.354;2022-08-02T08:53:53;31.60;93.00
25138;DHT22;13112;50.986;4.354;2022-08-02T08:56:21;31.50;92.30
25138;DHT22;13112;50.986;4.354;2022-08-02T08:58:47;31.30;92.80
25138;DHT22;13112;50.986;4.354;2022-08-02T09:01:13;32.00;92.50
25138;DHT22;13112;50.986;4.354;2022-08-02T09:03:41;31.60;92.70
25138;DHT22;13112;50.986;4.354;2022-08-02T09:06:07;32.50;92.50
25138;DHT22;13112;50.986;4.354;2022-08-02T09:08:32;33.10;91.00
25138;DHT22;13112;50.986;4.354;2022-08-02T09:10:58;33.70;90.60
25138;DHT22;13112;50.986;4.354;2022-08-02T09:13:26;32.10;91.20
25138;DHT22;13112;50.986;4.354;2022-08-02T09:16:00;32.30;91.90
25138;DHT22;13112;50.986;4.354;2022-08-02T09:18:33;32.30;90.70
25138;DHT22;13112;50.986;4.354;2022-08-02T09:21:04;29.50;92.90
25138;DHT22;13112;50.986;4.354;2022-08-02T09:26:02;30.50;93.00
25138;DHT22;13112;50.986;4.354;2022-08-02T09:28:30;31.50;92.40
25138;DHT22;13112;50.986;4.354;2022-08-02T09:31:05;30.50;92.60
25138;DHT22;13112;50.986;4.354;2022-08-02T09:33:31;31.20;92.00
25138;DHT22;13112;50.986;4.354;2022-08-02T09:36:05;32.40;91.30
25138;DHT22;13112;50.986;4.354;2022-08-02T09:38:31;32.80;88.60
25138;DHT22;13112;50.986;4.354;2022-08-02T09:40:57;31.90;90.90
25138;DHT22;13112;50.986;4.354;2022-08-02T09:43:37;32.50;88.90
25138;DHT22;13112;50.986;4.354;2022-08-02T09:46:17;33.10;88.20
25138;DHT22;13112;50.986;4.354;2022-08-02T09:48:57;33.60;87.80
25138;DHT22;13112;50.986;4.354;2022-08-02T09:51:27;33.90;87.10
25138;DHT22;13112;50.986;4.354;2022-08-02T09:53:58;33.60;85.80
25138;DHT22;13112;50.986;4.354;2022-08-02T09:56:25;32.60;84.50
25138;DHT22;13112;50.986;4.354;2022-08-02T09:58:52;32.40;87.40
25138;DHT22;13112;50.986;4.354;2022-08-02T10:01:20;33.60;86.90
25138;DHT22;13112;50.986;4.354;2022-08-02T10:03:54;34.00;85.20
25138;DHT22;13112;50.986;4.354;2022-08-02T10:06:20;34.40;82.40
25138;DHT22;13112;50.986;4.354;2022-08-02T10:08:46;34.80;81.90
25138;DHT22;13112;50.986;4.354;2022-08-02T10:11:13;34.30;81.60
25138;DHT22;13112;50.986;4.354;2022-08-02T10:13:39;34.10;82.00
25138;DHT22;13112;50.986;4.354;2022-08-02T10:16:05;33.30;81.10
25138;DHT22;13112;50.986;4.354;2022-08-02T10:18:31;33.00;83.00
25138;DHT22;13112;50.986;4.354;2022-08-02T10:21:01;31.70;83.40
25138;DHT22;13112;50.986;4.354;2022-08-02T10:23:28;31.00;85.00
25138;DHT22;13112;50.986;4.354;2022-08-02T10:25:57;31.30;84.80
25138;DHT22;13112;50.986;4.354;2022-08-02T10:28:28;30.70;86.50
25138;DHT22;13112;50.986;4.354;2022-08-02T10:30:57;30.40;88.60
25138;DHT22;13112;50.986;4.354;2022-08-02T10:33:24;31.00;86.80
25138;DHT22;13112;50.986;4.354;2022-08-02T10:35:52;31.20;86.00
25138;DHT22;13112;50.986;4.354;2022-08-02T10:38:20;30.90;88.20
25138;DHT22;13112;50.986;4.354;2022-08-02T10:40:50;30.00;88.10
25138;DHT22;13112;50.986;4.354;2022-08-02T10:46:35;30.10;88.80
25138;DHT22;13112;50.986;4.354;2022-08-02T10:49:02;30.40;89.70
25138;DHT22;13112;50.986;4.354;2022-08-02T10:54:34;32.20;86.00
25138;DHT22;13112;50.986;4.354;2022-08-02T10:57:02;32.90;83.70
25138;DHT22;13112;50.986;4.354;2022-08-02T10:59:34;33.20;82.80
25138;DHT22;13112;50.986;4.354;2022-08-02T11:02:01;31.40;85.60
25138;DHT22;13112;50.986;4.354;2022-08-02T11:07:15;30.60;87.10
25138;DHT22;13112;50.986;4.354;2022-08-02T11:09:43;32.40;84.70
25138;DHT22;13112;50.986;4.354;2022-08-02T11:12:11;33.30;82.10
25138;DHT22;13112;50.986;4.354;2022-08-02T11:14:42;34.10;80.50
25138;DHT22;13112;50.986;4.354;2022-08-02T11:17:16;35.20;78.70
25138;DHT22;13112;50.986;4.354;2022-08-02T11:22:30;35.80;75.20
25138;DHT22;13112;50.986;4.354;2022-08-02T11:24:55;35.10;75.10
25138;DHT22;13112;50.986;4.354;2022-08-02T11:27:21;32.90;77.10
25138;DHT22;13112;50.986;4.354;2022-08-02T11:29:47;31.30;82.00
25138;DHT22;13112;50.986;4.354;2022-08-02T11:32:23;31.90;82.10
25138;DHT22;13112;50.986;4.354;2022-08-02T11:34:51;33.30;81.50
25138;DHT22;13112;50.986;4.354;2022-08-02T11:37:34;34.60;78.60
25138;DHT22;13112;50.986;4.354;2022-08-02T11:40:01;36.00;76.70
25138;DHT22;13112;50.986;4.354;2022-08-02T11:42:31;37.40;74.50
25138;DHT22;13112;50.986;4.354;2022-08-02T11:44:58;36.00;75.10
25138;DHT22;13112;50.986;4.354;2022-08-02T11:47:23;36.50;74.00
25138;DHT22;13112;50.986;4.354;2022-08-02T11:49:49;36.40;73.80
25138;DHT22;13112;50.986;4.354;2022-08-02T11:52:15;37.70;72.30
25138;DHT22;13112;50.986;4.354;2022-08-02T11:54:42;38.10;70.30
25138;DHT22;13112;50.986;4.354;2022-08-02T11:57:18;38.40;69.20
25138;DHT22;13112;50.986;4.354;2022-08-02T11:59:49;37.10;68.50
25138;DHT22;13112;50.986;4.354;2022-08-02T12:02:17;37.40;69.20
25138;DHT22;13112;50.986;4.354;2022-08-02T12:04:43;38.30;67.10
25138;DHT22;13112;50.986;4.354;2022-08-02T12:07:15;39.10;66.30
25138;DHT22;13112;50.986;4.354;2022-08-02T12:09:41;38.10;66.20
25138;DHT22;13112;50.986;4.354;2022-08-02T12:12:06;38.50;66.50
25138;DHT22;13112;50.986;4.354;2022-08-02T12:14:41;38.50;66.30
25138;DHT22;13112;50.986;4.354;2022-08-02T12:17:07;38.30;66.40
25138;DHT22;13112;50.986;4.354;2022-08-02T12:19:51;38.50;66.60
25138;DHT22;13112;50.986;4.354;2022-08-02T12:22:23;37.50;67.90
25138;DHT22;13112;50.986;4.354;2022-08-02T12:24:52;37.30;68.00
25138;DHT22;13112;50.986;4.354;2022-08-02T12:27:32;37.70;66.80
25138;DHT22;13112;50.986;4.354;2022-08-02T12:30:05;37.70;66.90
25138;DHT22;13112;50.986;4.354;2022-08-02T12:32:32;37.60;67.90
25138;DHT22;13112;50.986;4.354;2022-08-02T12:35:04;36.90;67.40
25138;DHT22;13112;50.986;4.354;2022-08-02T12:37:30;35.40;70.60
25138;DHT22;13112;50.986;4.354;2022-08-02T12:39:55;35.50;71.40
25138;DHT22;13112;50.986;4.354;2022-08-02T12:42:21;35.80;71.30
25138;DHT22;13112;50.986;4.354;2022-08-02T12:44:54;36.80;68.90
25138;DHT22;13112;50.986;4.354;2022-08-02T12:47:21;37.40;68.80
25138;DHT22;13112;50.986;4.354;2022-08-02T12:50:14;37.60;67.80
25138;DHT22;13112;50.986;4.354;2022-08-02T12:52:40;38.10;66.60
25138;DHT22;13112;50.986;4.354;2022-08-02T12:55:20;38.10;66.50
25138;DHT22;13112;50.986;4.354;2022-08-02T12:57:57;38.50;66.00
25138;DHT22;13112;50.986;4.354;2022-08-02T13:00:37;38.70;66.30
25138;DHT22;13112;50.986;4.354;2022-08-02T13:03:03;39.50;65.90
25138;DHT22;13112;50.986;4.354;2022-08-02T13:05:30;39.60;64.30
25138;DHT22;13112;50.986;4.354;2022-08-02T13:07:58;39.00;64.80
25138;DHT22;13112;50.986;4.354;2022-08-02T13:10:24;39.00;64.50
25138;DHT22;13112;50.986;4.354;2022-08-02T13:12:51;39.80;63.00
25138;DHT22;13112;50.986;4.354;2022-08-02T13:15:17;39.60;62.70
25138;DHT22;13112;50.986;4.354;2022-08-02T13:17:44;40.30;62.50
25138;DHT22;13112;50.986;4.354;2022-08-02T13:20:10;40.50;61.60
25138;DHT22;13112;50.986;4.354;2022-08-02T13:22:36;39.40;61.80
25138;DHT22;13112;50.986;4.354;2022-08-02T13:25:03;38.30;63.80
25138;DHT22;13112;50.986;4.354;2022-08-02T13:27:29;37.60;64.80
25138;DHT22;13112;50.986;4.354;2022-08-02T13:29:56;37.80;65.40
25138;DHT22;13112;50.986;4.354;2022-08-02T13:32:23;37.90;65.80
25138;DHT22;13112;50.986;4.354;2022-08-02T13:34:49;38.70;64.60
25138;DHT22;13112;50.986;4.354;2022-08-02T13:37:16;39.50;63.60
25138;DHT22;13112;50.986;4.354;2022-08-02T13:39:41;39.20;62.90
25138;DHT22;13112;50.986;4.354;2022-08-02T13:42:07;38.70;64.00
25138;DHT22;13112;50.986;4.354;2022-08-02T13:44:34;38.90;63.00
25138;DHT22;13112;50.986;4.354;2022-08-02T13:47:04;38.80;63.40
25138;DHT22;13112;50.986;4.354;2022-08-02T13:49:30;38.30;64.90
25138;DHT22;13112;50.986;4.354;2022-08-02T13:51:55;38.50;64.80
25138;DHT22;13112;50.986;4.354;2022-08-02T13:54:21;38.60;64.60
25138;DHT22;13112;50.986;4.354;2022-08-02T13:56:47;39.00;64.50
25138;DHT22;13112;50.986;4.354;2022-08-02T13:59:13;39.10;63.30
25138;DHT22;13112;50.986;4.354;2022-08-02T14:01:38;39.70;62.60
25138;DHT22;13112;50.986;4.354;2022-08-02T14:04:04;39.80;62.10
25138;DHT22;13112;50.986;4.354;2022-08-02T14:06:30;38.90;63.10
25138;DHT22;13112;50.986;4.354;2022-08-02T14:08:56;38.30;64.10
25138;DHT22;13112;50.986;4.354;2022-08-02T14:11:21;38.70;63.50
25138;DHT22;13112;50.986;4.354;2022-08-02T14:13:47;39.70;62.90
25138;DHT22;13112;50.986;4.354;2022-08-02T14:16:12;40.20;61.20
25138;DHT22;13112;50.986;4.354;2022-08-02T14:18:38;38.90;62.20
25138;DHT22;13112;50.986;4.354;2022-08-02T14:21:04;37.60;64.90
25138;DHT22;13112;50.986;4.354;2022-08-02T14:23:30;36.70;66.30
25138;DHT22;13112;50.986;4.354;2022-08-02T14:25:57;35.50;68.50
25138;DHT22;13112;50.986;4.354;2022-08-02T14:28:23;34.90;70.00
25138;DHT22;13112;50.986;4.354;2022-08-02T14:30:48;33.60;71.70
25138;DHT22;13112;50.986;4.354;2022-08-02T14:33:14;32.90;73.70
25138;DHT22;13112;50.986;4.354;2022-08-02T14:35:40;32.20;75.80
25138;DHT22;13112;50.986;4.354;2022-08-02T14:38:06;32.10;77.30
25138;DHT22;13112;50.986;4.354;2022-08-02T14:40:32;31.50;77.10
25138;DHT22;13112;50.986;4.354;2022-08-02T14:42:59;31.80;78.50
25138;DHT22;13112;50.986;4.354;2022-08-02T14:45:25;32.10;77.80
25138;DHT22;13112;50.986;4.354;2022-08-02T14:47:53;32.30;77.40
25138;DHT22;13112;50.986;4.354;2022-08-02T14:50:19;32.50;78.30
25138;DHT22;13112;50.986;4.354;2022-08-02T14:52:45;32.60;76.90
25138;DHT22;13112;50.986;4.354;2022-08-02T14:55:12;32.40;77.20
25138;DHT22;13112;50.986;4.354;2022-08-02T14:57:38;32.30;78.20
25138;DHT22;13112;50.986;4.354;2022-08-02T15:00:04;32.10;78.10
25138;DHT22;13112;50.986;4.354;2022-08-02T15:02:31;31.80;79.90
25138;DHT22;13112;50.986;4.354;2022-08-02T15:04:56;32.00;79.60
25138;DHT22;13112;50.986;4.354;2022-08-02T15:07:22;32.30;78.60
25138;DHT22;13112;50.986;4.354;2022-08-02T15:09:48;32.30;78.50
25138;DHT22;13112;50.986;4.354;2022-08-02T15:12:14;32.30;79.30
25138;DHT22;13112;50.986;4.354;2022-08-02T15:14:41;32.30;79.50
25138;DHT22;13112;50.986;4.354;2022-08-02T15:17:07;32.50;79.00
25138;DHT22;13112;50.986;4.354;2022-08-02T15:19:33;32.70;79.50
25138;DHT22;13112;50.986;4.354;2022-08-02T15:21:59;32.60;78.60
25138;DHT22;13112;50.986;4.354;2022-08-02T15:24:25;31.70;81.10
25138;DHT22;13112;50.986;4.354;2022-08-02T15:26:51;31.50;81.80
25138;DHT22;13112;50.986;4.354;2022-08-02T15:29:18;31.80;82.30
25138;DHT22;13112;50.986;4.354;2022-08-02T15:31:43;31.90;81.70
25138;DHT22;13112;50.986;4.354;2022-08-02T15:34:09;31.50;81.80
25138;DHT22;13112;50.986;4.354;2022-08-02T15:36:35;31.60;82.50
25138;DHT22;13112;50.986;4.354;2022-08-02T15:39:01;31.50;82.20
25138;DHT22;13112;50.986;4.354;2022-08-02T15:41:27;31.50;83.10
25138;DHT22;13112;50.986;4.354;2022-08-02T15:43:52;31.40;83.20
25138;DHT22;13112;50.986;4.354;2022-08-02T15:46:18;31.60;82.90
25138;DHT22;13112;50.986;4.354;2022-08-02T15:48:44;31.80;82.20
25138;DHT22;13112;50.986;4.354;2022-08-02T15:51:09;31.90;82.60
25138;DHT22;13112;50.986;4.354;2022-08-02T15:53:35;32.00;82.40
25138;DHT22;13112;50.986;4.354;2022-08-02T15:56:01;31.80;82.40
25138;DHT22;13112;50.986;4.354;2022-08-02T15:58:26;31.50;83.50
25138;DHT22;13112;50.986;4.354;2022-08-02T16:00:52;31.10;83.50
25138;DHT22;13112;50.986;4.354;2022-08-02T16:03:19;30.90;84.50